createdAt,value
2022-09-10T00:02:00.296Z,7.10
2022-09-10T00:04:30.079Z,7.93
2022-09-10T00:06:58.157Z,8.57
2022-09-10T00:09:25.760Z,7.10
2022-09-10T00:11:53.352Z,9.50
2022-09-10T00:14:23.806Z,12.50
2022-09-10T00:16:51.665Z,9.43
2022-09-10T00:19:19.571Z,16.10
2022-09-10T00:21:50.086Z,11.07
2022-09-10T00:24:17.658Z,12.43
2022-09-10T00:26:45.646Z,8.23
2022-09-10T00:29:15.822Z,12.10
2022-09-10T00:31:44.913Z,8.83
2022-09-10T00:34:13.951Z,10.17
2022-09-10T00:36:43.891Z,7.67
2022-09-10T00:39:15.046Z,11.17
2022-09-10T00:41:44.226Z,7.80
2022-09-10T00:44:45.169Z,7.50
2022-09-10T00:47:15.858Z,13.57
2022-09-10T00:49:46.392Z,12.00
2022-09-10T00:52:14.234Z,8.40
2022-09-10T00:54:43.917Z,14.37
2022-09-10T00:57:15.101Z,8.93
2022-09-10T00:59:45.728Z,12.73
2022-09-10T01:02:14.852Z,12.43
2022-09-10T01:04:43.110Z,9.60
2022-09-10T01:07:11.854Z,14.13
2022-09-10T01:09:40.678Z,11.03
2022-09-10T01:12:22.675Z,7.60
2022-09-10T01:15:04.487Z,7.83
2022-09-10T01:17:36.959Z,8.03
2022-09-10T01:20:25.807Z,8.33
2022-09-10T01:23:17.594Z,7.97
2022-09-10T01:25:54.739Z,11.63
2022-09-10T01:28:28.314Z,9.77
2022-09-10T01:31:02.019Z,16.13
2022-09-10T01:33:34.258Z,9.20
2022-09-10T01:36:05.547Z,6.37
2022-09-10T01:38:35.518Z,7.40
2022-09-10T01:41:04.342Z,8.67
2022-09-10T01:43:38.598Z,9.40
2022-09-10T01:46:18.462Z,9.40
2022-09-10T01:49:05.067Z,8.03
2022-09-10T01:51:39.044Z,6.33
2022-09-10T01:54:18.085Z,7.50
2022-09-10T01:56:52.337Z,6.93
2022-09-10T01:59:27.032Z,8.17
2022-09-10T02:02:01.274Z,10.73
2022-09-10T02:04:29.837Z,9.10
2022-09-10T02:06:58.211Z,7.83
2022-09-10T02:09:25.822Z,8.10
2022-09-10T02:11:54.988Z,10.43
2022-09-10T02:14:40.546Z,20.03
2022-09-10T02:17:33.551Z,10.03
2022-09-10T02:20:02.664Z,10.73
2022-09-10T02:22:31.629Z,9.03
2022-09-10T02:24:59.582Z,9.87
2022-09-10T02:27:29.972Z,13.80
2022-09-10T02:29:59.306Z,13.23
2022-09-10T02:32:26.907Z,10.00
2022-09-10T02:34:54.416Z,6.40
2022-09-10T02:37:21.979Z,8.40
2022-09-10T02:39:49.589Z,13.60
2022-09-10T02:42:18.096Z,16.40
2022-09-10T02:44:47.996Z,7.30
2022-09-10T02:47:18.975Z,7.77
2022-09-10T02:49:47.017Z,9.00
2022-09-10T02:52:14.588Z,8.67
2022-09-10T02:54:42.319Z,7.50
2022-09-10T02:57:12.215Z,6.73
2022-09-10T02:59:39.781Z,13.70
2022-09-10T03:02:07.378Z,6.90
2022-09-10T03:04:36.364Z,10.70
2022-09-10T03:07:04.146Z,6.87
2022-09-10T03:09:31.687Z,9.80
2022-09-10T03:11:59.670Z,6.73
2022-09-10T03:14:30.225Z,8.73
2022-09-10T03:16:58.201Z,8.77
2022-09-10T03:19:26.627Z,8.43
2022-09-10T03:21:55.566Z,9.40
2022-09-10T03:24:23.309Z,7.67
2022-09-10T03:26:50.863Z,10.40
2022-09-10T03:29:18.469Z,12.13
2022-09-10T03:31:46.619Z,9.23
2022-09-10T03:34:16.249Z,13.03
2022-09-10T03:36:47.286Z,10.63
2022-09-10T03:39:18.381Z,6.20
2022-09-10T03:41:46.347Z,6.40
2022-09-10T03:44:17.119Z,8.60
2022-09-10T03:46:45.681Z,12.23
2022-09-10T03:49:17.811Z,8.50
2022-09-10T03:51:45.364Z,6.03
2022-09-10T03:54:16.202Z,7.40
2022-09-10T03:56:44.854Z,8.33
2022-09-10T03:59:13.342Z,13.77
2022-09-10T04:01:41.605Z,6.30
2022-09-10T04:04:09.267Z,5.77
2022-09-10T04:06:37.569Z,7.57
2022-09-10T04:09:05.736Z,8.73
2022-09-10T04:11:34.979Z,6.33
2022-09-10T04:14:02.944Z,5.97
2022-09-10T04:16:32.481Z,8.53
2022-09-10T04:19:00.756Z,7.30
2022-09-10T04:21:29.814Z,6.37
2022-09-10T04:23:59.236Z,5.80
2022-09-10T04:26:27.169Z,8.87
2022-09-10T04:28:57.053Z,9.00
2022-09-10T04:31:24.687Z,9.30
2022-09-10T04:33:56.950Z,6.80
2022-09-10T04:36:27.052Z,8.57
2022-09-10T04:38:54.939Z,8.90
2022-09-10T04:41:22.827Z,8.40
2022-09-10T04:43:50.816Z,6.03
2022-09-10T04:46:19.803Z,9.23
2022-09-10T04:48:51.914Z,6.47
2022-09-10T04:51:22.805Z,6.00
2022-09-10T04:53:53.752Z,10.33
2022-09-10T04:56:25.963Z,9.33
2022-09-10T04:58:53.667Z,9.10
2022-09-10T05:01:22.604Z,7.80
2022-09-10T05:03:53.139Z,7.67
2022-09-10T05:06:21.123Z,7.53
2022-09-10T05:08:49.383Z,11.13
2022-09-10T05:11:19.605Z,9.33
2022-09-10T05:13:47.393Z,8.83
2022-09-10T05:16:18.269Z,13.73
2022-09-10T05:18:48.452Z,6.13
2022-09-10T05:21:18.562Z,6.73
2022-09-10T05:23:46.645Z,8.00
2022-09-10T05:26:14.254Z,12.70
2022-09-10T05:28:43.302Z,6.50
2022-09-10T05:31:14.715Z,7.47
2022-09-10T05:33:44.279Z,11.73
2022-09-10T05:36:15.029Z,7.23
2022-09-10T05:38:45.529Z,10.13
2022-09-10T05:41:13.717Z,8.13
2022-09-10T05:43:45.734Z,8.40
2022-09-10T05:46:13.737Z,12.33
2022-09-10T05:48:45.790Z,7.60
2022-09-10T05:51:15.987Z,8.60
2022-09-10T05:53:44.767Z,9.30
2022-09-10T05:56:12.764Z,11.70
2022-09-10T05:58:41.875Z,7.53
2022-09-10T06:01:11.060Z,12.00
2022-09-10T06:03:40.365Z,8.70
2022-09-10T06:06:09.815Z,11.57
2022-09-10T06:08:41.430Z,17.13
2022-09-10T06:11:14.249Z,10.13
2022-09-10T06:13:45.845Z,11.03
2022-09-10T06:16:14.348Z,10.60
2022-09-10T06:18:44.065Z,9.73
2022-09-10T06:21:15.460Z,9.93
2022-09-10T06:23:46.335Z,9.00
2022-09-10T06:26:18.417Z,9.90
2022-09-10T06:28:47.561Z,13.17
2022-09-10T06:31:17.690Z,10.20
2022-09-10T06:33:46.707Z,12.37
2022-09-10T06:36:16.686Z,9.17
2022-09-10T06:38:45.946Z,16.43
2022-09-10T06:41:15.328Z,9.97
2022-09-10T06:43:51.007Z,9.50
2022-09-10T06:47:35.883Z,13.73
2022-09-10T06:49:31.280Z,9.90
2022-09-10T06:51:58.899Z,11.60
2022-09-10T06:54:28.649Z,10.90
2022-09-10T06:57:01.330Z,9.83
2022-09-10T06:59:31.321Z,10.50
2022-09-10T07:02:00.413Z,19.93
2022-09-10T07:04:28.696Z,11.77
2022-09-10T07:06:59.622Z,10.90
2022-09-10T07:09:28.695Z,9.53
2022-09-10T07:11:58.518Z,9.73
2022-09-10T07:14:28.508Z,18.33
2022-09-10T07:16:58.001Z,12.60
2022-09-10T07:19:30.707Z,12.50
2022-09-10T07:21:58.356Z,9.00
2022-09-10T07:24:26.179Z,11.73
2022-09-10T07:27:07.190Z,8.10
2022-09-10T07:29:36.394Z,9.90
2022-09-10T07:32:05.268Z,11.63
2022-09-10T07:34:33.286Z,8.00
2022-09-10T07:37:02.094Z,10.10
2022-09-10T07:39:31.335Z,9.70
2022-09-10T07:42:00.378Z,11.23
2022-09-10T07:44:31.968Z,13.63
2022-09-10T07:47:03.377Z,11.10
2022-09-10T07:49:32.590Z,11.90
2022-09-10T07:52:00.416Z,11.20
2022-09-10T07:54:33.225Z,12.40
2022-09-10T07:57:01.542Z,21.03
2022-09-10T07:59:30.368Z,14.03
2022-09-10T08:02:02.474Z,13.77
2022-09-10T08:04:36.418Z,14.40
2022-09-10T08:07:06.784Z,15.67
2022-09-10T08:09:37.418Z,11.57
2022-09-10T08:12:07.671Z,13.10
2022-09-10T08:14:37.286Z,10.27
2022-09-10T08:17:06.919Z,11.50
2022-09-10T08:19:39.432Z,11.60
2022-09-10T08:22:11.488Z,13.97
2022-09-10T08:24:44.710Z,13.43
2022-09-10T08:27:13.012Z,15.00
2022-09-10T08:29:41.810Z,14.87
2022-09-10T08:32:12.976Z,13.00
2022-09-10T08:34:41.158Z,14.37
2022-09-10T08:37:10.657Z,12.70
2022-09-10T08:39:39.491Z,15.53
2022-09-10T08:42:12.853Z,12.33
2022-09-10T08:44:48.979Z,15.40
2022-09-10T08:47:26.196Z,12.73
2022-09-10T08:49:59.476Z,12.00
2022-09-10T08:52:31.103Z,14.60
2022-09-10T08:55:03.940Z,21.13
2022-09-10T08:57:34.618Z,13.33
2022-09-10T09:00:03.748Z,14.47
2022-09-10T09:02:49.287Z,14.83
2022-09-10T09:05:20.520Z,15.13
2022-09-10T09:07:51.650Z,16.00
2022-09-10T09:10:22.126Z,16.20
2022-09-10T09:13:10.388Z,15.47
2022-09-10T09:15:44.528Z,15.10
2022-09-10T09:18:21.556Z,14.30
2022-09-10T09:20:52.573Z,17.83
2022-09-10T09:23:25.000Z,14.60
2022-09-10T09:25:56.367Z,17.43
2022-09-10T09:28:33.015Z,21.93
2022-09-10T09:31:09.334Z,17.83
2022-09-10T09:33:38.903Z,17.63
2022-09-10T09:36:08.359Z,17.93
2022-09-10T09:38:38.818Z,15.40
2022-09-10T09:41:14.526Z,18.10
2022-09-10T09:43:51.376Z,15.37
2022-09-10T09:46:21.826Z,15.60
2022-09-10T09:48:56.655Z,24.43
2022-09-10T09:51:27.714Z,16.23
2022-09-10T09:54:25.858Z,17.20
2022-09-10T09:56:49.753Z,16.40
2022-09-10T09:59:27.569Z,18.23
2022-09-10T10:01:55.646Z,16.23
2022-09-10T10:04:26.802Z,16.70
2022-09-10T10:06:55.880Z,15.77
2022-09-10T10:09:24.827Z,15.50
2022-09-10T10:11:53.822Z,26.63
2022-09-10T10:14:24.680Z,15.30
2022-09-10T10:16:57.311Z,15.10
2022-09-10T10:19:34.100Z,15.37
2022-09-10T10:22:21.466Z,21.77
2022-09-10T10:24:53.916Z,15.33
2022-09-10T10:27:29.113Z,14.60
2022-09-10T10:29:59.000Z,16.00
2022-09-10T10:32:34.771Z,18.20
2022-09-10T10:35:34.203Z,15.50
2022-09-10T10:38:28.450Z,17.33
2022-09-10T10:41:09.493Z,18.47
2022-09-10T10:43:45.082Z,17.57
2022-09-10T10:46:17.049Z,16.50
2022-09-10T10:48:57.946Z,17.23
2022-09-10T10:51:35.688Z,16.50
2022-09-10T10:54:12.666Z,16.70
2022-09-10T10:56:43.509Z,15.40
2022-09-10T10:59:28.502Z,20.83
2022-09-10T11:01:59.273Z,15.33
2022-09-10T11:04:33.042Z,17.07
2022-09-10T11:07:07.549Z,16.47
2022-09-10T11:09:39.019Z,17.33
2022-09-10T11:12:11.282Z,16.93
2022-09-10T11:14:42.563Z,18.70
2022-09-10T11:17:14.133Z,17.63
2022-09-10T11:19:53.326Z,17.00
2022-09-10T11:22:36.492Z,23.73
2022-09-10T11:25:10.500Z,17.80
2022-09-10T11:27:41.149Z,16.00
2022-09-10T11:30:11.692Z,18.03
2022-09-10T11:32:42.719Z,18.07
2022-09-10T11:35:15.142Z,15.93
2022-09-10T11:37:51.449Z,17.07
2022-09-10T11:40:23.025Z,17.13
2022-09-10T11:42:53.661Z,17.43
2022-09-10T11:45:28.585Z,16.10
2022-09-10T11:48:00.212Z,15.50
2022-09-10T11:50:34.476Z,14.10
2022-09-10T11:53:07.281Z,16.20
2022-09-10T11:55:42.746Z,16.37
2022-09-10T11:58:15.793Z,16.17
2022-09-10T12:00:52.553Z,14.90
2022-09-10T12:03:34.152Z,12.50
2022-09-10T12:06:05.819Z,12.53
2022-09-10T12:08:51.056Z,12.33
2022-09-10T12:11:24.844Z,14.00
2022-09-10T12:13:52.516Z,9.70
2022-09-10T12:16:32.090Z,7.97
2022-09-10T12:19:01.351Z,9.73
2022-09-10T12:21:33.504Z,8.20
2022-09-10T12:24:06.249Z,6.90
2022-09-10T12:26:41.779Z,7.00
2022-09-10T12:29:27.733Z,8.13
2022-09-10T12:32:28.494Z,9.93
2022-09-10T12:35:45.140Z,7.47
2022-09-10T12:38:46.820Z,7.03
2022-09-10T12:41:58.472Z,7.20
2022-09-10T12:44:52.409Z,7.10
2022-09-10T12:47:56.889Z,7.80
2022-09-10T12:50:46.930Z,9.00
2022-09-10T12:53:32.092Z,17.50
2022-09-10T12:56:02.669Z,7.80
2022-09-10T12:58:47.499Z,7.63
2022-09-10T13:01:21.364Z,8.60
2022-09-10T13:03:56.133Z,8.70
2022-09-10T13:06:35.214Z,11.00
2022-09-10T13:09:06.115Z,8.00
2022-09-10T13:11:37.343Z,8.10
2022-09-10T13:14:06.980Z,6.63
2022-09-10T13:16:40.216Z,6.27
2022-09-10T13:19:45.763Z,11.20
2022-09-10T13:22:33.826Z,11.23
2022-09-10T13:25:03.954Z,8.80
2022-09-10T13:27:40.053Z,9.30
2022-09-10T13:30:17.209Z,7.70
2022-09-10T13:32:48.253Z,6.73
2022-09-10T13:35:50.398Z,5.87
2022-09-10T13:39:03.119Z,9.67
2022-09-10T13:42:19.063Z,6.20
2022-09-10T13:45:00.406Z,7.90
2022-09-10T13:47:34.856Z,12.57
2022-09-10T13:50:05.938Z,6.27
2022-09-10T13:52:35.718Z,7.17
2022-09-10T13:55:04.771Z,6.23
2022-09-10T13:57:34.570Z,6.40
2022-09-10T14:00:07.653Z,9.33
2022-09-10T14:02:47.475Z,8.33
2022-09-10T14:05:27.284Z,6.00
2022-09-10T14:07:56.214Z,6.77
2022-09-10T14:10:24.235Z,9.73
2022-09-10T14:12:52.316Z,8.23
2022-09-10T14:15:21.924Z,8.10
2022-09-10T14:17:53.715Z,8.57
2022-09-10T14:20:26.285Z,7.20
2022-09-10T14:22:59.488Z,8.13
2022-09-10T14:25:31.183Z,9.17
2022-09-10T14:28:21.937Z,9.53
2022-09-10T14:30:50.821Z,7.73
2022-09-10T14:33:25.737Z,8.43
2022-09-10T14:35:54.078Z,6.47
2022-09-10T14:38:24.334Z,10.87
2022-09-10T14:40:56.833Z,10.67
2022-09-10T14:43:30.415Z,8.43
2022-09-10T14:45:58.457Z,8.17
2022-09-10T14:48:33.577Z,7.43
2022-09-10T14:51:19.945Z,6.50
2022-09-10T14:53:51.757Z,5.10
2022-09-10T14:56:23.885Z,6.80
2022-09-10T14:58:59.416Z,4.77
2022-09-10T15:01:27.708Z,6.97
2022-09-10T15:03:56.851Z,4.73
2022-09-10T15:06:26.793Z,4.90
2022-09-10T15:08:55.970Z,19.63
2022-09-10T15:11:25.369Z,4.10
2022-09-10T15:13:55.724Z,7.07
2022-09-10T15:16:24.084Z,6.20
2022-09-10T15:18:52.011Z,5.23
2022-09-10T15:21:21.208Z,6.30
2022-09-10T15:23:49.067Z,4.93
2022-09-10T15:26:17.217Z,4.43
2022-09-10T15:28:45.401Z,5.53
2022-09-10T15:31:13.075Z,3.70
2022-09-10T15:33:41.988Z,4.10
2022-09-10T15:36:10.072Z,6.70
2022-09-10T15:38:39.148Z,4.27
2022-09-10T15:41:12.878Z,5.73
2022-09-10T15:43:42.861Z,4.20
2022-09-10T15:46:11.612Z,4.80
2022-09-10T15:48:39.989Z,4.77
2022-09-10T15:51:10.035Z,4.30
2022-09-10T15:53:40.476Z,6.57
2022-09-10T15:56:09.961Z,3.63
2022-09-10T15:58:38.005Z,6.57
2022-09-10T16:01:07.682Z,6.03
2022-09-10T16:03:35.591Z,5.03
2022-09-10T16:06:04.690Z,8.90
2022-09-10T16:08:33.053Z,8.17
2022-09-10T16:11:08.116Z,7.83
2022-09-10T16:13:39.761Z,6.07
2022-09-10T16:16:09.505Z,6.40
2022-09-10T16:18:37.927Z,6.90
2022-09-10T16:21:11.467Z,7.10
2022-09-10T16:23:40.872Z,7.43
2022-09-10T16:26:11.366Z,6.00
2022-09-10T16:28:39.087Z,6.40
2022-09-10T16:31:14.678Z,12.70
2022-09-10T16:33:42.671Z,8.97
2022-09-10T16:36:11.166Z,3.80
2022-09-10T16:38:39.198Z,6.27
2022-09-10T16:41:07.721Z,9.90
2022-09-10T16:43:37.311Z,6.30
2022-09-10T16:46:05.855Z,8.53
2022-09-10T16:48:34.024Z,7.30
2022-09-10T16:51:06.380Z,6.13
2022-09-10T16:53:34.293Z,9.40
2022-09-10T16:56:02.293Z,4.43
2022-09-10T16:58:35.227Z,6.73
2022-09-10T17:01:06.158Z,5.47
2022-09-10T17:03:33.877Z,7.47
2022-09-10T17:06:01.555Z,7.40
2022-09-10T17:08:30.344Z,5.77
2022-09-10T17:10:57.994Z,6.03
2022-09-10T17:13:26.075Z,7.63
2022-09-10T17:15:54.212Z,5.20
2022-09-10T17:18:23.190Z,6.57
2022-09-10T17:20:53.717Z,6.50
2022-09-10T17:23:21.514Z,6.10
2022-09-10T17:25:49.241Z,6.73
2022-09-10T17:28:16.904Z,8.03
2022-09-10T17:30:45.302Z,7.30
2022-09-10T17:33:13.054Z,7.00
2022-09-10T17:35:42.071Z,6.73
2022-09-10T17:38:09.734Z,5.80
2022-09-10T17:40:38.426Z,4.80
2022-09-10T17:43:06.722Z,6.67
2022-09-10T17:45:38.170Z,6.60
2022-09-10T17:48:05.873Z,6.57
2022-09-10T17:50:33.477Z,7.10
2022-09-10T17:53:02.748Z,7.77
2022-09-10T17:55:33.769Z,7.83
2022-09-10T17:58:01.526Z,7.10
2022-09-10T18:00:29.323Z,9.13
2022-09-10T18:02:57.088Z,7.07
2022-09-10T18:05:26.475Z,6.93
2022-09-10T18:07:54.284Z,9.07
2022-09-10T18:10:23.659Z,11.00
2022-09-10T18:12:51.358Z,7.00
2022-09-10T18:15:19.690Z,9.87
2022-09-10T18:17:47.392Z,7.97
2022-09-10T18:20:15.290Z,11.50
2022-09-10T18:22:42.924Z,15.43
2022-09-10T18:25:10.763Z,14.93
2022-09-10T18:27:41.582Z,13.17
2022-09-10T18:30:10.216Z,14.50
2022-09-10T18:32:37.868Z,18.07
2022-09-10T18:35:06.660Z,17.10
2022-09-10T18:37:34.312Z,17.00
2022-09-10T18:40:02.485Z,18.87
2022-09-10T18:42:30.358Z,19.97
2022-09-10T18:44:59.446Z,22.73
2022-09-10T18:47:44.030Z,20.20
2022-09-10T18:50:13.565Z,22.20
2022-09-10T18:53:02.616Z,21.13
2022-09-10T18:55:30.164Z,23.80
2022-09-10T18:57:57.844Z,26.57
2022-09-10T19:00:26.768Z,26.47
2022-09-10T19:02:55.081Z,24.33
2022-09-10T19:05:22.752Z,24.03
2022-09-10T19:07:50.320Z,26.70
2022-09-10T19:10:18.010Z,29.23
2022-09-10T19:12:45.653Z,25.97
2022-09-10T19:15:13.267Z,28.33
2022-09-10T19:17:42.262Z,33.33
2022-09-10T19:20:10.718Z,31.20
2022-09-10T19:22:38.485Z,28.83
2022-09-10T19:25:07.174Z,32.07
2022-09-10T19:27:35.100Z,31.60
2022-09-10T19:30:02.762Z,31.63
2022-09-10T19:32:30.578Z,34.27
2022-09-10T19:34:59.876Z,32.63
2022-09-10T19:37:28.481Z,33.70
2022-09-10T19:39:57.373Z,31.00
2022-09-10T19:42:25.220Z,30.57
2022-09-10T19:44:53.060Z,28.77
2022-09-10T19:47:20.906Z,33.10
2022-09-10T19:49:48.611Z,32.00
2022-09-10T19:52:17.581Z,33.60
2022-09-10T19:54:45.201Z,33.33
2022-09-10T19:57:12.733Z,34.13
2022-09-10T19:59:40.624Z,37.10
2022-09-10T20:02:09.680Z,35.23
2022-09-10T20:04:37.400Z,37.97
2022-09-10T20:07:05.153Z,36.57
2022-09-10T20:09:39.218Z,31.00
2022-09-10T20:12:09.226Z,37.40
2022-09-10T20:14:37.233Z,36.77
2022-09-10T20:17:05.902Z,34.97
2022-09-10T20:19:33.484Z,34.23
2022-09-10T20:22:01.383Z,36.57
2022-09-10T20:24:29.095Z,36.53
2022-09-10T20:26:58.271Z,35.43
2022-09-10T20:29:26.433Z,40.13
2022-09-10T20:31:54.090Z,39.00
2022-09-10T20:34:22.747Z,40.10
2022-09-10T20:36:51.978Z,39.27
2022-09-10T20:39:22.274Z,41.83
2022-09-10T20:41:50.135Z,38.50
2022-09-10T20:44:19.880Z,46.57
2022-09-10T20:46:47.799Z,42.73
2022-09-10T20:49:16.291Z,45.37
2022-09-10T20:51:45.511Z,40.07
2022-09-10T20:54:14.273Z,42.73
2022-09-10T20:56:42.162Z,47.10
2022-09-10T20:59:10.133Z,42.33
2022-09-10T21:01:39.803Z,48.87
2022-09-10T21:04:07.494Z,49.10
2022-09-10T21:06:36.529Z,46.57
2022-09-10T21:09:05.882Z,50.93
2022-09-10T21:11:34.865Z,48.60
2022-09-10T21:14:04.092Z,45.70
2022-09-10T21:16:32.885Z,44.63
2022-09-10T21:19:03.050Z,50.93
2022-09-10T21:21:32.717Z,45.67
2022-09-10T21:24:01.932Z,49.13
2022-09-10T21:26:31.543Z,46.40
2022-09-10T21:29:00.887Z,43.80
2022-09-10T21:31:29.611Z,45.03
2022-09-10T21:34:02.441Z,45.67
2022-09-10T21:36:34.614Z,45.83
2022-09-10T21:39:03.266Z,43.37
2022-09-10T21:41:32.345Z,42.67
2022-09-10T21:44:00.770Z,47.90
2022-09-10T21:46:29.372Z,47.40
2022-09-10T21:48:57.101Z,42.50
2022-09-10T21:51:25.050Z,47.07
2022-09-10T21:53:55.877Z,44.43
2022-09-10T21:56:24.760Z,44.77
2022-09-10T21:58:52.876Z,47.43
2022-09-10T22:01:22.777Z,51.40
2022-09-10T22:03:52.577Z,48.40
2022-09-10T22:06:23.033Z,43.90
2022-09-10T22:08:51.958Z,42.37
2022-09-10T22:11:24.165Z,42.00
2022-09-10T22:13:53.055Z,41.77
2022-09-10T22:16:22.515Z,41.00
2022-09-10T22:18:50.822Z,46.63
2022-09-10T22:21:19.352Z,45.40
2022-09-10T22:23:47.469Z,42.40
2022-09-10T22:26:16.943Z,48.50
2022-09-10T22:28:46.947Z,71.50
2022-09-10T22:31:17.084Z,52.83
2022-09-10T22:33:46.357Z,48.63
2022-09-10T22:36:15.779Z,47.40
2022-09-10T22:38:43.961Z,46.50
2022-09-10T22:41:14.081Z,46.70
2022-09-10T22:43:42.845Z,47.40
2022-09-10T22:46:14.827Z,49.63
2022-09-10T22:48:43.781Z,49.83
2022-09-10T22:51:14.049Z,51.20
2022-09-10T22:53:42.847Z,50.70
2022-09-10T22:56:12.106Z,48.13
2022-09-10T22:58:39.898Z,51.23
2022-09-10T23:01:09.091Z,45.33
2022-09-10T23:03:38.464Z,49.10
2022-09-10T23:06:08.364Z,56.67
2022-09-10T23:08:36.497Z,48.90
2022-09-10T23:11:12.186Z,51.67
2022-09-10T23:13:41.232Z,62.10
2022-09-10T23:16:13.412Z,54.33
2022-09-10T23:18:43.392Z,48.60
2022-09-10T23:21:11.854Z,59.43
2022-09-10T23:23:39.843Z,54.27
2022-09-10T23:26:09.221Z,55.33
2022-09-10T23:28:37.216Z,67.17
2022-09-10T23:31:13.915Z,58.37
2022-09-10T23:33:45.138Z,54.77
2022-09-10T23:36:13.407Z,60.93
2022-09-10T23:38:41.347Z,60.20
2022-09-10T23:41:09.561Z,58.97
2022-09-10T23:43:37.355Z,60.23
2022-09-10T23:46:05.000Z,66.47
2022-09-10T23:48:32.964Z,65.87
2022-09-10T23:51:02.314Z,61.83
2022-09-10T23:53:30.144Z,63.00
2022-09-10T23:55:58.085Z,69.83
2022-09-10T23:58:26.019Z,73.50
